createdAt,value
2023-02-20T11:24:28.243Z,976.09
2023-02-20T11:25:29.599Z,976.11
2023-02-20T11:26:29.416Z,976.20
2023-02-20T11:27:29.308Z,976.07
2023-02-20T11:28:29.229Z,976.11
2023-02-20T11:29:29.133Z,976.20
2023-02-20T11:30:29.213Z,976.13
2023-02-20T11:31:29.210Z,976.11
2023-02-20T11:32:29.137Z,976.14
2023-02-20T11:33:29.113Z,976.06
2023-02-20T11:34:29.145Z,976.12
2023-02-20T11:35:29.102Z,976.09
2023-02-20T11:36:30.059Z,976.00
2023-02-20T11:37:29.108Z,975.93
2023-02-20T11:38:29.065Z,975.93
2023-02-20T11:39:29.053Z,975.94
2023-02-20T11:40:29.131Z,975.97
2023-02-20T11:41:29.070Z,975.86
2023-02-20T11:42:29.154Z,975.89
2023-02-20T11:43:29.041Z,975.89
2023-02-20T11:44:28.998Z,975.88
2023-02-20T11:45:29.001Z,975.93
2023-02-20T11:46:29.026Z,975.81
2023-02-20T11:47:28.939Z,975.78
2023-02-20T11:48:29.116Z,975.74
2023-02-20T11:49:28.941Z,975.71
2023-02-20T11:50:28.918Z,975.78
2023-02-20T11:51:28.952Z,975.87
2023-02-20T11:52:28.895Z,975.80
2023-02-20T11:53:28.901Z,975.68
2023-02-20T11:54:28.874Z,975.72
2023-02-20T11:55:28.859Z,975.70
2023-02-20T11:56:28.871Z,975.83
2023-02-20T11:57:28.861Z,975.66
2023-02-20T11:58:28.844Z,975.58
2023-02-20T11:59:28.880Z,975.62
2023-02-20T12:00:28.795Z,975.62
2023-02-20T12:01:28.849Z,975.70
2023-02-20T12:02:28.868Z,975.68
2023-02-20T12:03:28.831Z,975.64
2023-02-20T12:04:28.804Z,975.70
2023-02-20T12:05:28.805Z,975.74
2023-02-20T12:06:28.738Z,975.73
2023-02-20T12:07:28.719Z,975.58
2023-02-20T12:08:28.748Z,975.77
2023-02-20T12:09:28.724Z,975.64
2023-02-20T12:10:28.725Z,975.56
2023-02-20T12:11:28.674Z,975.70
2023-02-20T12:12:28.716Z,975.57
2023-02-20T12:13:28.659Z,975.53
2023-02-20T12:14:28.616Z,975.56
2023-02-20T12:15:28.711Z,975.56
2023-02-20T12:16:28.701Z,975.54
2023-02-20T12:17:28.609Z,975.48
2023-02-20T12:18:28.710Z,975.68
2023-02-20T12:19:28.559Z,975.49
2023-02-20T12:20:28.547Z,975.45
2023-02-20T12:21:28.623Z,975.41
2023-02-20T12:22:28.552Z,975.40
2023-02-20T12:23:28.559Z,975.39
2023-02-20T12:24:28.537Z,975.42
2023-02-20T12:25:28.540Z,975.40
2023-02-20T12:26:28.556Z,975.36
2023-02-20T12:27:28.499Z,975.19
2023-02-20T12:28:28.482Z,975.25
2023-02-20T12:29:28.488Z,975.33
2023-02-20T12:30:28.532Z,975.34
2023-02-20T12:31:28.543Z,975.27
2023-02-20T12:32:28.432Z,975.29
2023-02-20T12:33:28.427Z,975.21
2023-02-20T12:34:28.437Z,975.31
2023-02-20T12:35:28.408Z,975.35
2023-02-20T12:36:28.400Z,975.26
2023-02-20T12:37:28.458Z,975.25
2023-02-20T12:38:28.404Z,975.28
2023-02-20T12:39:28.366Z,975.38
2023-02-20T12:40:28.393Z,975.27
2023-02-20T12:41:28.341Z,975.28
2023-02-20T12:42:28.401Z,975.26
2023-02-20T12:43:28.393Z,975.28
2023-02-20T12:44:28.317Z,975.35
2023-02-20T12:45:28.285Z,975.27
2023-02-20T12:46:28.334Z,975.43
2023-02-20T12:47:28.360Z,975.33
2023-02-20T12:48:28.253Z,975.32
2023-02-20T12:49:28.299Z,975.31
2023-02-20T12:50:28.255Z,975.19
2023-02-20T12:51:30.214Z,975.38
2023-02-20T12:52:28.230Z,975.38
2023-02-20T12:53:28.236Z,975.26
2023-02-20T12:54:28.195Z,975.38
